Time;durP1;ratioP1;P1;durP2;ratioP2;P2;SDS_P1;SDS_P2;PMS_P1;PMS_P2;Temp;Humidity;BMP_temperature;BMP_pressure;BME280_temperature;BME280_humidity;BME280_pressure;Samples;Min_cycle;Max_cycle;Signal;HPM_P1;HPM_P2
2023/04/30 00:02:17;;;;;;;52.97;38.53;;;;;;;;;;5076267;28;20018;-82
2023/04/30 00:05:03;;;;;;;58.73;37.70;;;;;;;;;;5070515;28;20011;-81
2023/04/30 00:07:29;;;;;;;54.20;38.00;;;;;;;;;;5071743;28;20044;-81
2023/04/30 00:10:04;;;;;;;55.53;37.97;;;;;;;;;;5074598;28;20057;-80
2023/04/30 00:12:30;;;;;;;64.23;38.57;;;;;;;;;;5070445;28;20012;-81
2023/04/30 00:14:56;;;;;;;56.63;37.17;;;;;;;;;;5073338;28;20013;-81
2023/04/30 00:28:19;;;;;;;55.43;38.03;;;;;;;;;;5137321;27;20463;-81
2023/04/30 00:30:48;;;;;;;50.90;35.30;;;;;;;;;;5108918;22;20040;-81
2023/04/30 00:33:14;;;;;;;53.57;36.33;;;;;;;;;;5071627;28;20101;-80
2023/04/30 00:35:40;;;;;;;53.40;37.20;;;;;;;;;;5074190;28;20089;-81
2023/04/30 00:38:06;;;;;;;50.20;36.30;;;;;;;;;;5069790;28;20021;-81
2023/04/30 00:40:36;;;;;;;51.93;36.30;;;;;;;;;;5073358;28;20055;-80
2023/04/30 00:43:04;;;;;;;58.67;37.00;;;;;;;;;;5073955;28;20018;-80
2023/04/30 00:45:33;;;;;;;62.30;37.80;;;;;;;;;;5071106;28;20014;-81
2023/04/30 00:47:59;;;;;;;54.40;36.40;;;;;;;;;;5069268;28;20017;-80
2023/04/30 00:50:25;;;;;;;59.63;39.00;;;;;;;;;;5073933;28;20009;-81
2023/04/30 00:52:54;;;;;;;58.00;37.37;;;;;;;;;;5072155;28;20034;-80
2023/04/30 00:55:30;;;;;;;;;;;;;;;;;;;;;
2023/04/30 00:57:59;;;;;;;57.20;37.33;;;;;;;;;;5070879;28;20049;-80
2023/04/30 01:00:25;;;;;;;53.07;35.90;;;;;;;;;;5070732;28;20025;-80
2023/04/30 01:02:51;;;;;;;55.13;36.70;;;;;;;;;;5060651;28;20010;-81
2023/04/30 01:05:32;;;;;;;61.27;38.20;;;;;;;;;;5073120;28;20052;-80
2023/04/30 01:07:58;;;;;;;61.50;40.67;;;;;;;;;;5135482;23;20101;-81
2023/04/30 01:10:32;;;;;;;63.20;40.10;;;;;;;;;;5097976;28;20219;-80
2023/04/30 01:13:29;;;;;;;59.13;37.10;;;;;;;;;;5110325;28;20031;-80
2023/04/30 01:16:01;;;;;;;60.60;37.13;;;;;;;;;;5110389;28;20028;-81
2023/04/30 01:18:29;;;;;;;57.65;36.50;;;;;;;;;;5104922;28;20080;-80
2023/04/30 01:21:01;;;;;;;65.30;39.77;;;;;;;;;;5112212;28;20031;-82
2023/04/30 01:23:46;;;;;;;56.78;37.33;;;;;;;;;;5092774;28;20021;-81
2023/04/30 01:26:15;;;;;;;61.27;37.07;;;;;;;;;;5105703;28;20021;-80
2023/04/30 01:28:47;;;;;;;63.53;38.00;;;;;;;;;;5081582;28;20039;-81
2023/04/30 01:31:15;;;;;;;57.80;36.67;;;;;;;;;;5078815;28;20013;-80
2023/04/30 01:33:41;;;;;;;54.03;34.50;;;;;;;;;;5093244;28;20025;-82
2023/04/30 01:36:23;;;;;;;53.53;34.93;;;;;;;;;;5097778;28;20025;-81
2023/04/30 01:39:03;;;;;;;51.67;34.13;;;;;;;;;;5092807;28;20101;-81
2023/04/30 01:41:51;;;;;;;52.53;33.47;;;;;;;;;;5076275;28;20017;-80
2023/04/30 01:44:36;;;;;;;47.20;30.70;;;;;;;;;;5096949;28;20036;-82
2023/04/30 01:47:31;;;;;;;46.57;31.30;;;;;;;;;;5097118;28;20046;-82
2023/04/30 01:50:16;;;;;;;51.43;33.77;;;;;;;;;;5095736;28;20120;-80
2023/04/30 01:52:51;;;;;;;49.93;31.83;;;;;;;;;;5090369;28;20044;-81
2023/04/30 01:55:27;;;;;;;46.87;31.47;;;;;;;;;;5096274;28;20029;-81
2023/04/30 01:58:00;;;;;;;52.10;34.07;;;;;;;;;;5096083;28;20116;-81
2023/04/30 02:00:29;;;;;;;46.07;30.50;;;;;;;;;;5093232;28;20032;-81
2023/04/30 02:02:55;;;;;;;48.40;32.20;;;;;;;;;;5096353;28;20019;-81
2023/04/30 02:05:21;;;;;;;46.23;31.17;;;;;;;;;;5078602;28;20029;-81
2023/04/30 02:07:57;;;;;;;51.03;32.80;;;;;;;;;;5084236;28;20051;-81
2023/04/30 02:10:28;;;;;;;50.47;32.47;;;;;;;;;;5094445;28;20116;-80
2023/04/30 02:12:54;;;;;;;42.87;29.67;;;;;;;;;;5097913;28;20021;-81
2023/04/30 02:15:41;;;;;;;45.57;29.63;;;;;;;;;;5079066;28;20013;-81
2023/04/30 02:18:06;;;;;;;45.47;28.57;;;;;;;;;;5078187;28;20092;-80
2023/04/30 02:20:32;;;;;;;48.33;29.57;;;;;;;;;;5097444;28;20032;-81
2023/04/30 02:23:01;;;;;;;44.97;29.53;;;;;;;;;;5095656;28;20022;-81
2023/04/30 02:25:30;;;;;;;41.80;30.13;;;;;;;;;;5076963;28;20025;-80
2023/04/30 02:28:01;;;;;;;50.60;31.37;;;;;;;;;;5095007;28;20005;-82
2023/04/30 02:30:45;;;;;;;47.30;30.80;;;;;;;;;;5076616;28;20047;-81
2023/04/30 02:33:11;;;;;;;42.70;28.50;;;;;;;;;;5077220;28;20043;-82
2023/04/30 02:35:37;;;;;;;43.20;27.83;;;;;;;;;;5095966;28;20021;-82
2023/04/30 02:38:05;;;;;;;53.57;31.43;;;;;;;;;;5095014;28;20060;-82
2023/04/30 02:40:31;;;;;;;43.77;30.73;;;;;;;;;;5093361;28;20009;-81
2023/04/30 02:43:00;;;;;;;43.90;30.17;;;;;;;;;;5089615;28;20036;-81
2023/04/30 02:45:26;;;;;;;51.67;30.27;;;;;;;;;;5083329;28;20016;-81
2023/04/30 02:47:54;;;;;;;47.53;29.53;;;;;;;;;;5077261;28;20017;-82
2023/04/30 02:50:20;;;;;;;46.57;29.47;;;;;;;;;;5095641;28;20120;-82
2023/04/30 02:52:46;;;;;;;46.57;31.23;;;;;;;;;;5081086;28;20017;-82
2023/04/30 02:55:19;;;;;;;43.90;29.17;;;;;;;;;;5096779;28;20096;-82
2023/04/30 02:57:46;;;;;;;50.10;29.47;;;;;;;;;;5089662;28;20036;-82
2023/04/30 03:00:17;;;;;;;51.03;30.03;;;;;;;;;;5095020;28;20016;-82
2023/04/30 03:02:53;;;;;;;50.20;30.90;;;;;;;;;;5093955;28;20119;-82
2023/04/30 03:05:19;;;;;;;50.80;32.30;;;;;;;;;;5077091;28;20039;-82
2023/04/30 03:07:47;;;;;;;46.57;30.33;;;;;;;;;;5093117;28;20036;-81
2023/04/30 03:10:13;;;;;;;42.97;29.43;;;;;;;;;;5090216;28;20013;-81
2023/04/30 03:12:39;;;;;;;44.80;27.03;;;;;;;;;;5091712;28;20035;-82
2023/04/30 03:15:08;;;;;;;43.17;28.00;;;;;;;;;;5088302;28;20039;-81
2023/04/30 03:17:34;;;;;;;50.17;30.67;;;;;;;;;;5081400;28;20069;-82
2023/04/30 03:20:03;;;;;;;46.13;30.00;;;;;;;;;;5097521;28;20025;-80
2023/04/30 03:22:30;;;;;;;46.67;29.03;;;;;;;;;;5054856;28;20013;-81
2023/04/30 03:24:58;;;;;;;46.27;27.93;;;;;;;;;;5089404;28;20016;-82
2023/04/30 03:27:27;;;;;;;42.17;27.67;;;;;;;;;;5093612;28;20016;-81
2023/04/30 03:29:53;;;;;;;39.03;25.67;;;;;;;;;;5091094;28;20035;-81
2023/04/30 03:32:21;;;;;;;35.63;24.97;;;;;;;;;;5094593;28;20092;-81
2023/04/30 03:34:49;;;;;;;43.67;27.77;;;;;;;;;;5090405;28;20016;-80
2023/04/30 03:37:15;;;;;;;37.93;25.33;;;;;;;;;;5086908;28;20055;-81
2023/04/30 03:39:41;;;;;;;45.83;29.30;;;;;;;;;;5089268;28;20089;-82
2023/04/30 03:42:07;;;;;;;47.33;30.17;;;;;;;;;;5075764;28;20028;-82
2023/04/30 03:44:33;;;;;;;48.00;29.20;;;;;;;;;;5094751;28;21243;-81
2023/04/30 03:47:07;;;;;;;52.03;29.83;;;;;;;;;;5088486;28;20037;-81
2023/04/30 03:49:36;;;;;;;50.40;31.13;;;;;;;;;;5079525;28;20028;-81
2023/04/30 03:52:04;;;;;;;48.27;30.80;;;;;;;;;;5092945;28;20031;-81
2023/04/30 03:54:32;;;;;;;47.57;29.83;;;;;;;;;;5093659;28;20027;-80
2023/04/30 03:57:03;;;;;;;51.50;30.13;;;;;;;;;;5089757;28;20044;-80
2023/04/30 03:59:30;;;;;;;45.33;28.13;;;;;;;;;;5076940;28;20032;-81
2023/04/30 04:01:56;;;;;;;49.17;30.17;;;;;;;;;;5094501;28;20029;-82
2023/04/30 04:04:22;;;;;;;50.13;29.57;;;;;;;;;;5076851;28;20021;-81
2023/04/30 04:06:50;;;;;;;49.80;30.23;;;;;;;;;;5076307;28;20048;-80
2023/04/30 04:09:19;;;;;;;54.73;31.30;;;;;;;;;;5073430;28;20052;-81
2023/04/30 04:11:48;;;;;;;48.43;30.17;;;;;;;;;;5094258;28;20043;-81
2023/04/30 04:14:15;;;;;;;49.47;31.13;;;;;;;;;;5093625;28;21263;-81
2023/04/30 04:16:43;;;;;;;44.20;28.53;;;;;;;;;;5087590;28;20029;-80
2023/04/30 04:19:11;;;;;;;49.70;31.03;;;;;;;;;;5091680;28;20005;-80
2023/04/30 04:21:40;;;;;;;49.73;28.97;;;;;;;;;;5075756;28;20037;-81
2023/04/30 04:24:09;;;;;;;43.47;27.47;;;;;;;;;;5088931;28;20015;-81
2023/04/30 04:26:38;;;;;;;42.67;27.57;;;;;;;;;;5074782;28;20057;-81
2023/04/30 04:29:04;;;;;;;46.93;28.63;;;;;;;;;;5075334;28;20028;-82
2023/04/30 04:31:30;;;;;;;46.30;28.93;;;;;;;;;;5093789;28;20032;-80
2023/04/30 04:34:18;;;;;;;48.50;30.47;;;;;;;;;;5093431;28;20020;-81
2023/04/30 04:36:47;;;;;;;48.03;27.80;;;;;;;;;;5095079;28;20049;-81
2023/04/30 04:39:13;;;;;;;39.90;26.47;;;;;;;;;;5075841;28;20017;-81
2023/04/30 04:41:40;;;;;;;40.03;27.57;;;;;;;;;;5094762;28;20056;-81
2023/04/30 04:44:08;;;;;;;45.07;27.83;;;;;;;;;;5092594;28;20033;-80
2023/04/30 04:46:43;;;;;;;44.20;28.83;;;;;;;;;;5092926;28;20032;-81
2023/04/30 04:49:12;;;;;;;45.53;27.13;;;;;;;;;;5078184;28;20013;-81
2023/04/30 04:51:38;;;;;;;48.00;26.43;;;;;;;;;;5094187;28;20010;-81
2023/04/30 04:54:07;;;;;;;42.37;26.50;;;;;;;;;;5077906;28;20025;-80
2023/04/30 04:56:35;;;;;;;44.57;28.03;;;;;;;;;;5093476;28;20048;-80
2023/04/30 04:59:04;;;;;;;45.80;27.97;;;;;;;;;;5077791;28;20033;-81
2023/04/30 05:01:33;;;;;;;40.70;25.60;;;;;;;;;;5075547;28;20097;-81
2023/04/30 05:04:08;;;;;;;45.53;27.67;;;;;;;;;;5079778;28;20024;-81
2023/04/30 05:06:35;;;;;;;49.80;28.47;;;;;;;;;;5079462;28;20024;-80
2023/04/30 05:09:01;;;;;;;46.70;29.27;;;;;;;;;;5095684;28;20047;-80
2023/04/30 05:11:29;;;;;;;52.50;31.43;;;;;;;;;;5097629;28;20013;-81
2023/04/30 05:13:57;;;;;;;49.27;31.13;;;;;;;;;;5078367;28;20088;-81
2023/04/30 05:16:25;;;;;;;45.93;29.27;;;;;;;;;;5078742;28;20112;-80
2023/04/30 05:18:55;;;;;;;51.00;31.23;;;;;;;;;;5091699;28;20021;-81
2023/04/30 05:21:24;;;;;;;54.77;31.67;;;;;;;;;;5083215;28;20021;-81
2023/04/30 05:23:51;;;;;;;51.73;32.17;;;;;;;;;;5099249;28;20029;-81
2023/04/30 05:26:17;;;;;;;58.40;32.33;;;;;;;;;;5078708;28;20043;-81
2023/04/30 05:28:45;;;;;;;61.63;31.33;;;;;;;;;;5094297;28;20093;-80
2023/04/30 05:31:11;;;;;;;53.67;32.50;;;;;;;;;;5094221;28;20017;-80
2023/04/30 05:33:39;;;;;;;54.83;32.27;;;;;;;;;;5106297;22;20048;-80
2023/04/30 05:36:23;;;;;;;49.97;30.47;;;;;;;;;;5057773;28;20044;-80
2023/04/30 05:39:01;;;;;;;;;;;;;;;;;;;;;
2023/04/30 05:41:35;;;;;;;53.47;31.83;;;;;;;;;;5056315;28;20052;-81
2023/04/30 05:50:05;;;;;;;50.73;32.27;;;;;;;;;;5410575;22;20098;-82
2023/04/30 05:52:37;;;;;;;49.87;30.57;;;;;;;;;;5076105;28;20035;-81
2023/04/30 05:55:06;;;;;;;56.25;30.60;;;;;;;;;;5100588;28;20333;-80
2023/04/30 06:10:31;;;;;;;43.63;29.17;;;;;;;;;;5768377;22;20083;-81
2023/04/30 06:12:57;;;;;;;45.93;29.50;;;;;;;;;;5246725;22;20032;-82
2023/04/30 06:18:15;;;;;;;37.90;25.87;;;;;;;;;;6008967;22;19940;-82
2023/04/30 06:24:05;;;;;;;36.63;24.20;;;;;;;;;;5055409;28;20047;-81
2023/04/30 06:26:34;;;;;;;36.70;23.60;;;;;;;;;;5072313;28;20065;-80
2023/04/30 06:35:01;;;;;;;32.97;22.17;;;;;;;;;;5294284;22;20356;-79
2023/04/30 06:40:04;;;;;;;32.33;21.53;;;;;;;;;;5118189;22;20050;-81
2023/04/30 06:42:36;;;;;;;29.97;20.77;;;;;;;;;;5100343;28;20039;-81
2023/04/30 06:45:05;;;;;;;33.17;22.00;;;;;;;;;;5101178;28;20016;-81
2023/04/30 06:47:36;;;;;;;30.20;20.43;;;;;;;;;;5104841;28;20019;-80
2023/04/30 06:50:05;;;;;;;34.63;22.90;;;;;;;;;;5349599;22;20029;-80
2023/04/30 06:52:31;;;;;;;33.90;22.10;;;;;;;;;;5079392;28;20013;-81
2023/04/30 06:55:20;;;;;;;29.63;20.70;;;;;;;;;;5077444;28;20034;-80
2023/04/30 06:57:54;;;;;;;30.63;20.83;;;;;;;;;;5072229;28;20025;-80
2023/04/30 07:00:27;;;;;;;32.40;21.83;;;;;;;;;;5089335;28;20017;-80
2023/04/30 07:03:01;;;;;;;43.07;24.53;;;;;;;;;;5089260;28;20032;-80
2023/04/30 07:05:30;;;;;;;30.60;21.90;;;;;;;;;;5072373;28;20025;-79
2023/04/30 07:08:00;;;;;;;34.30;22.03;;;;;;;;;;5071377;28;20039;-79
2023/04/30 07:10:29;;;;;;;29.77;21.53;;;;;;;;;;5069010;28;20962;-79
2023/04/30 07:12:58;;;;;;;35.90;21.30;;;;;;;;;;5072646;28;20032;-79
2023/04/30 07:15:33;;;;;;;35.50;20.93;;;;;;;;;;5072617;28;20207;-79
2023/04/30 07:17:59;;;;;;;35.30;22.33;;;;;;;;;;5069323;28;20043;-79
2023/04/30 07:20:26;;;;;;;28.93;19.87;;;;;;;;;;5069962;28;20013;-79
2023/04/30 07:22:54;;;;;;;32.63;22.10;;;;;;;;;;5088371;28;20044;-79
2023/04/30 07:25:20;;;;;;;33.57;23.67;;;;;;;;;;5067950;28;20017;-79
2023/04/30 07:27:46;;;;;;;27.10;19.10;;;;;;;;;;5089078;28;20025;-79
2023/04/30 07:30:12;;;;;;;29.17;19.03;;;;;;;;;;5070713;28;20084;-80
2023/04/30 07:32:42;;;;;;;30.13;19.80;;;;;;;;;;5096902;22;20027;-78
2023/04/30 07:38:04;;;;;;;28.57;18.73;;;;;;;;;;5107160;28;20100;-80
2023/04/30 07:40:41;;;;;;;27.03;18.57;;;;;;;;;;5103736;28;20031;-79
2023/04/30 07:43:07;;;;;;;26.07;18.40;;;;;;;;;;5096798;28;20033;-81
2023/04/30 07:45:34;;;;;;;24.90;18.43;;;;;;;;;;5089431;28;20029;-81
2023/04/30 07:48:00;;;;;;;25.33;17.90;;;;;;;;;;5075216;28;20430;-80
2023/04/30 07:50:28;;;;;;;23.80;17.37;;;;;;;;;;5094070;28;20675;-80
2023/04/30 07:52:54;;;;;;;27.53;19.47;;;;;;;;;;5094508;28;20024;-81
2023/04/30 07:55:20;;;;;;;25.13;18.23;;;;;;;;;;5079394;28;20036;-80
2023/04/30 07:57:46;;;;;;;32.50;20.07;;;;;;;;;;5098656;28;20096;-81
2023/04/30 08:00:13;;;;;;;25.20;17.17;;;;;;;;;;5081639;28;20052;-81
2023/04/30 08:02:39;;;;;;;23.00;16.77;;;;;;;;;;5090775;28;20042;-81
2023/04/30 08:05:06;;;;;;;24.47;15.93;;;;;;;;;;5081193;28;20024;-80
2023/04/30 08:07:34;;;;;;;26.17;16.70;;;;;;;;;;5082351;28;20024;-81
2023/04/30 08:10:00;;;;;;;20.83;15.77;;;;;;;;;;5083593;28;20028;-81
2023/04/30 08:12:26;;;;;;;19.50;14.83;;;;;;;;;;5087533;28;20123;-81
2023/04/30 08:15:01;;;;;;;22.47;15.17;;;;;;;;;;5093390;28;20048;-81
2023/04/30 08:17:30;;;;;;;24.00;15.67;;;;;;;;;;5101481;28;20205;-81
2023/04/30 08:19:58;;;;;;;25.07;14.90;;;;;;;;;;5101189;28;20032;-81
2023/04/30 08:22:31;;;;;;;22.33;14.60;;;;;;;;;;5085986;28;20046;-81
2023/04/30 08:25:00;;;;;;;21.63;14.77;;;;;;;;;;5093302;28;20082;-81
2023/04/30 08:27:27;;;;;;;24.13;15.77;;;;;;;;;;5081842;28;20523;-81
2023/04/30 08:29:53;;;;;;;22.57;14.60;;;;;;;;;;5080143;28;20061;-81
2023/04/30 08:32:21;;;;;;;22.40;14.20;;;;;;;;;;5085650;28;20036;-80
2023/04/30 08:34:47;;;;;;;19.43;13.63;;;;;;;;;;5093894;28;20036;-81
2023/04/30 08:37:23;;;;;;;21.10;13.93;;;;;;;;;;5086732;28;20043;-81
2023/04/30 08:39:51;;;;;;;22.63;13.53;;;;;;;;;;5101100;28;20040;-81
2023/04/30 08:42:18;;;;;;;17.87;12.97;;;;;;;;;;5084502;28;20020;-80
2023/04/30 08:44:45;;;;;;;14.60;11.70;;;;;;;;;;5082205;28;20027;-81
2023/04/30 08:47:13;;;;;;;15.00;11.77;;;;;;;;;;5092623;28;20042;-80
2023/04/30 08:49:39;;;;;;;16.87;11.40;;;;;;;;;;5088905;28;20036;-81
2023/04/30 08:52:06;;;;;;;15.73;10.00;;;;;;;;;;5092265;28;20020;-80
2023/04/30 08:54:35;;;;;;;17.03;11.17;;;;;;;;;;5091249;28;20032;-81
2023/04/30 08:57:03;;;;;;;12.80;8.10;;;;;;;;;;5101337;28;20031;-81
2023/04/30 08:59:31;;;;;;;17.53;9.23;;;;;;;;;;5089375;28;20024;-81
2023/04/30 09:02:02;;;;;;;14.20;9.10;;;;;;;;;;5105534;28;20024;-80
2023/04/30 09:04:28;;;;;;;10.57;8.60;;;;;;;;;;5088242;28;20025;-81
2023/04/30 09:06:58;;;;;;;19.17;10.87;;;;;;;;;;5107725;28;20127;-80
2023/04/30 09:09:43;;;;;;;8.30;5.80;;;;;;;;;;5088461;28;20039;-81
2023/04/30 09:12:17;;;;;;;8.40;5.57;;;;;;;;;;5103682;28;20068;-81
2023/04/30 09:15:04;;;;;;;9.73;5.07;;;;;;;;;;5086813;28;20051;-81
2023/04/30 09:17:30;;;;;;;5.10;3.40;;;;;;;;;;5102157;28;20085;-81
2023/04/30 09:20:08;;;;;;;4.23;2.77;;;;;;;;;;5087665;28;20113;-81
2023/04/30 09:22:35;;;;;;;3.30;2.30;;;;;;;;;;5090689;28;20039;-81
2023/04/30 09:25:01;;;;;;;3.93;2.90;;;;;;;;;;5104785;28;20044;-81
2023/04/30 09:27:27;;;;;;;4.57;2.77;;;;;;;;;;5087787;28;20024;-80
2023/04/30 09:29:54;;;;;;;5.07;2.80;;;;;;;;;;5086964;28;20020;-81
2023/04/30 09:32:20;;;;;;;4.10;3.30;;;;;;;;;;5087874;28;20059;-80
2023/04/30 09:34:46;;;;;;;6.87;4.13;;;;;;;;;;5087286;28;20104;-81
2023/04/30 09:37:12;;;;;;;7.17;5.23;;;;;;;;;;5091448;28;20032;-81
2023/04/30 09:39:48;;;;;;;5.13;3.10;;;;;;;;;;5088629;28;20027;-80
2023/04/30 09:42:14;;;;;;;5.00;3.50;;;;;;;;;;5085198;28;20126;-80
2023/04/30 09:44:42;;;;;;;9.13;4.80;;;;;;;;;;5086013;28;20066;-81
2023/04/30 09:47:15;;;;;;;6.40;4.70;;;;;;;;;;5107188;28;20519;-80
2023/04/30 09:49:42;;;;;;;7.73;6.07;;;;;;;;;;5088062;28;20038;-80
2023/04/30 09:52:08;;;;;;;10.83;5.67;;;;;;;;;;5091294;28;20020;-80
2023/04/30 09:54:35;;;;;;;9.23;6.33;;;;;;;;;;5089713;28;20046;-81
2023/04/30 09:57:03;;;;;;;8.53;5.83;;;;;;;;;;5087797;28;20480;-81
2023/04/30 09:59:30;;;;;;;7.33;5.47;;;;;;;;;;5083214;28;20032;-81
2023/04/30 10:02:02;;;;;;;8.23;4.73;;;;;;;;;;5110134;28;20124;-80
2023/04/30 10:04:35;;;;;;;9.68;6.53;;;;;;;;;;5089466;28;20020;-80
2023/04/30 10:07:10;;;;;;;10.67;7.83;;;;;;;;;;5096146;28;20100;-79
2023/04/30 10:09:41;;;;;;;11.27;8.07;;;;;;;;;;5089770;28;20074;-80
2023/04/30 10:12:15;;;;;;;6.30;4.73;;;;;;;;;;5108979;28;20025;-80
2023/04/30 10:15:01;;;;;;;8.57;6.00;;;;;;;;;;5094489;28;20017;-80
2023/04/30 10:17:32;;;;;;;6.23;4.67;;;;;;;;;;5096175;28;20048;-80
2023/04/30 10:20:08;;;;;;;5.53;4.00;;;;;;;;;;5087097;28;20108;-79
2023/04/30 10:22:37;;;;;;;6.90;3.67;;;;;;;;;;5091323;28;20028;-81
2023/04/30 10:25:03;;;;;;;5.65;3.53;;;;;;;;;;5092283;28;20063;-81
2023/04/30 10:27:32;;;;;;;9.13;3.70;;;;;;;;;;5102802;28;20043;-80
2023/04/30 10:29:59;;;;;;;6.07;3.40;;;;;;;;;;5086755;28;20024;-81
2023/04/30 10:32:31;;;;;;;3.97;3.17;;;;;;;;;;5088914;28;20046;-81
2023/04/30 10:35:11;;;;;;;3.47;2.63;;;;;;;;;;5092909;28;20020;-81
2023/04/30 10:37:43;;;;;;;4.47;2.90;;;;;;;;;;5093394;28;20039;-80
2023/04/30 10:40:09;;;;;;;4.00;3.17;;;;;;;;;;5091890;28;20028;-80
2023/04/30 10:42:36;;;;;;;6.47;3.10;;;;;;;;;;5110806;28;20032;-80
2023/04/30 10:45:02;;;;;;;5.90;3.00;;;;;;;;;;5085289;28;20046;-80
2023/04/30 10:47:29;;;;;;;3.45;2.53;;;;;;;;;;5090736;28;20033;-81
2023/04/30 10:50:03;;;;;;;3.10;2.65;;;;;;;;;;5087516;28;20020;-80
2023/04/30 10:52:29;;;;;;;3.67;2.25;;;;;;;;;;5108267;28;20028;-80
2023/04/30 10:54:55;;;;;;;2.65;1.15;;;;;;;;;;5105141;28;20039;-80
2023/04/30 10:57:21;;;;;;;3.22;1.23;;;;;;;;;;5091151;28;20036;-80
2023/04/30 10:59:51;;;;;;;1.88;1.15;;;;;;;;;;5088947;28;20035;-80
2023/04/30 11:02:17;;;;;;;2.05;1.20;;;;;;;;;;5087854;28;20028;-80
2023/04/30 11:05:04;;;;;;;1.65;0.88;;;;;;;;;;5087486;28;20016;-80
2023/04/30 11:07:30;;;;;;;3.53;1.00;;;;;;;;;;5106505;28;20123;-80
2023/04/30 11:09:57;;;;;;;2.80;0.73;;;;;;;;;;5086247;28;20061;-80
2023/04/30 11:12:28;;;;;;;1.95;1.13;;;;;;;;;;5089739;28;20031;-81
2023/04/30 11:15:12;;;;;;;1.60;0.95;;;;;;;;;;5089956;28;20069;-80
2023/04/30 11:17:38;;;;;;;1.85;1.17;;;;;;;;;;5102573;28;20039;-78
2023/04/30 11:20:04;;;;;;;2.03;1.05;;;;;;;;;;5103763;28;20028;-80
2023/04/30 11:22:34;;;;;;;1.42;0.82;;;;;;;;;;5087490;28;20111;-80
2023/04/30 11:25:04;;;;;;;0.95;0.70;;;;;;;;;;5089990;28;20076;-80
2023/04/30 11:27:32;;;;;;;2.80;0.90;;;;;;;;;;5088923;28;20028;-80
2023/04/30 11:29:58;;;;;;;1.83;0.68;;;;;;;;;;5088857;28;20029;-81
2023/04/30 11:32:25;;;;;;;1.42;0.60;;;;;;;;;;5088876;28;20035;-80
2023/04/30 11:34:52;;;;;;;2.10;0.80;;;;;;;;;;5084064;28;20703;-80
2023/04/30 11:37:20;;;;;;;2.08;1.42;;;;;;;;;;5106664;28;20025;-79
2023/04/30 11:39:46;;;;;;;1.65;0.90;;;;;;;;;;5087806;28;20031;-78
2023/04/30 11:42:16;;;;;;;1.98;0.90;;;;;;;;;;5084645;28;20029;-77
2023/04/30 11:44:42;;;;;;;1.27;0.95;;;;;;;;;;5082273;28;20052;-77
2023/04/30 11:47:11;;;;;;;3.40;1.77;;;;;;;;;;5078822;28;20056;-78
2023/04/30 11:49:37;;;;;;;20.77;14.98;;;;;;;;;;5076490;28;20036;-79
2023/04/30 11:52:03;;;;;;;1.98;1.10;;;;;;;;;;5075307;28;20028;-78
2023/04/30 11:54:33;;;;;;;1.00;0.50;;;;;;;;;;5081134;28;20104;-78
2023/04/30 11:57:03;;;;;;;1.73;0.50;;;;;;;;;;5105550;28;20040;-81
2023/04/30 11:59:30;;;;;;;1.20;0.93;;;;;;;;;;5090839;28;20000;-80
2023/04/30 12:01:56;;;;;;;1.23;0.70;;;;;;;;;;5091442;28;20102;-80
2023/04/30 12:04:22;;;;;;;1.35;0.75;;;;;;;;;;5092309;28;20046;-80
2023/04/30 12:06:48;;;;;;;1.10;0.70;;;;;;;;;;5088769;28;20050;-81
2023/04/30 12:09:14;;;;;;;5.80;2.78;;;;;;;;;;5086115;28;20028;-81
2023/04/30 12:11:40;;;;;;;2.70;0.80;;;;;;;;;;5088150;28;20039;-79
2023/04/30 12:14:09;;;;;;;2.63;1.33;;;;;;;;;;5079322;28;20240;-78
2023/04/30 12:16:50;;;;;;;2.10;0.77;;;;;;;;;;5075095;28;20032;-80
2023/04/30 12:19:17;;;;;;;1.45;0.40;;;;;;;;;;5084172;28;20025;-76
2023/04/30 12:21:47;;;;;;;1.45;0.68;;;;;;;;;;5081529;28;20028;-77
2023/04/30 12:24:14;;;;;;;1.45;0.73;;;;;;;;;;5089620;28;20020;-79
2023/04/30 12:26:40;;;;;;;1.27;0.85;;;;;;;;;;5108577;28;20028;-80
2023/04/30 12:29:11;;;;;;;1.65;0.90;;;;;;;;;;5088251;28;20025;-79
2023/04/30 12:31:38;;;;;;;0.88;0.57;;;;;;;;;;5093668;28;20032;-77
2023/04/30 12:34:07;;;;;;;1.58;1.02;;;;;;;;;;5080670;28;20258;-77
2023/04/30 12:36:35;;;;;;;0.98;0.70;;;;;;;;;;5081870;28;20584;-78
2023/04/30 12:39:06;;;;;;;2.95;0.73;;;;;;;;;;5078285;28;20077;-77
2023/04/30 12:41:35;;;;;;;1.83;0.60;;;;;;;;;;5092385;28;20615;-78
2023/04/30 12:44:20;;;;;;;0.80;0.50;;;;;;;;;;5073580;28;20027;-78
2023/04/30 12:46:49;;;;;;;0.60;0.40;;;;;;;;;;5078344;28;20028;-77
2023/04/30 12:49:33;;;;;;;0.95;0.70;;;;;;;;;;5094329;28;20032;-77
2023/04/30 12:52:00;;;;;;;0.47;0.30;;;;;;;;;;5079109;28;20050;-79
2023/04/30 12:54:27;;;;;;;0.90;0.50;;;;;;;;;;5079736;28;20031;-76
2023/04/30 12:57:01;;;;;;;0.70;0.30;;;;;;;;;;5081554;28;20035;-79
2023/04/30 12:59:27;;;;;;;1.02;0.40;;;;;;;;;;5106760;28;20070;-79
2023/04/30 13:01:53;;;;;;;0.77;0.45;;;;;;;;;;5105906;28;20082;-77
2023/04/30 13:04:20;;;;;;;1.17;0.40;;;;;;;;;;5083280;28;20048;-78
2023/04/30 13:06:46;;;;;;;0.55;0.43;;;;;;;;;;5075140;28;20016;-77
2023/04/30 13:09:12;;;;;;;0.65;0.40;;;;;;;;;;5069661;28;20028;-79
2023/04/30 13:11:38;;;;;;;0.60;0.40;;;;;;;;;;5078992;28;20036;-79
2023/04/30 13:14:04;;;;;;;0.88;0.40;;;;;;;;;;5073652;28;20036;-78
2023/04/30 13:16:33;;;;;;;1.50;0.60;;;;;;;;;;5077177;28;20024;-78
2023/04/30 13:19:07;;;;;;;0.40;0.30;;;;;;;;;;5074631;28;20043;-78
2023/04/30 13:21:33;;;;;;;0.70;0.30;;;;;;;;;;5090082;28;20090;-78
2023/04/30 13:23:59;;;;;;;0.88;0.55;;;;;;;;;;5083371;28;20450;-77
2023/04/30 13:26:25;;;;;;;0.52;0.52;;;;;;;;;;5073675;28;20084;-79
2023/04/30 13:28:51;;;;;;;1.08;0.50;;;;;;;;;;5079619;28;20035;-79
2023/04/30 13:31:18;;;;;;;1.85;0.35;;;;;;;;;;5077021;28;20036;-78
2023/04/30 13:33:44;;;;;;;0.70;0.52;;;;;;;;;;5077847;28;20040;-79
2023/04/30 13:36:14;;;;;;;1.45;0.35;;;;;;;;;;5075820;28;20047;-79
2023/04/30 13:38:40;;;;;;;1.33;0.43;;;;;;;;;;5073876;28;20024;-77
2023/04/30 13:41:06;;;;;;;1.40;0.40;;;;;;;;;;5074282;28;20412;-77
2023/04/30 13:43:32;;;;;;;1.35;0.50;;;;;;;;;;5079133;28;20063;-80
2023/04/30 13:45:58;;;;;;;0.70;0.30;;;;;;;;;;5074978;28;20023;-80
2023/04/30 13:48:25;;;;;;;2.05;0.60;;;;;;;;;;5085119;28;20032;-81
2023/04/30 13:50:56;;;;;;;1.48;0.25;;;;;;;;;;5079423;28;20028;-79
2023/04/30 13:53:22;;;;;;;1.70;0.50;;;;;;;;;;5076901;28;20032;-80
2023/04/30 13:55:48;;;;;;;3.80;0.80;;;;;;;;;;5068148;28;20450;-82
2023/04/30 13:58:14;;;;;;;0.57;0.43;;;;;;;;;;5075055;28;20043;-80
2023/04/30 14:00:40;;;;;;;0.90;0.40;;;;;;;;;;5093733;28;20032;-79
2023/04/30 14:03:10;;;;;;;2.13;0.40;;;;;;;;;;5095643;28;20112;-79
2023/04/30 14:05:36;;;;;;;1.38;0.65;;;;;;;;;;5076964;28;20039;-80
2023/04/30 14:08:02;;;;;;;0.40;0.30;;;;;;;;;;5079263;28;20046;-79
2023/04/30 14:10:31;;;;;;;0.75;0.40;;;;;;;;;;5081994;28;20035;-79
2023/04/30 14:12:57;;;;;;;3.58;0.30;;;;;;;;;;5076308;28;20032;-77
2023/04/30 14:15:23;;;;;;;2.67;0.30;;;;;;;;;;5076099;28;20059;-78
2023/04/30 14:17:49;;;;;;;1.20;0.63;;;;;;;;;;5077285;28;20066;-79
2023/04/30 14:20:15;;;;;;;3.10;0.50;;;;;;;;;;5073624;28;20119;-80
2023/04/30 14:22:41;;;;;;;0.40;0.30;;;;;;;;;;5072635;28;20028;-80
2023/04/30 14:25:08;;;;;;;0.90;0.50;;;;;;;;;;5075638;28;20032;-80
2023/04/30 14:27:34;;;;;;;1.52;1.10;;;;;;;;;;5066924;28;20493;-81
2023/04/30 14:30:00;;;;;;;1.77;0.80;;;;;;;;;;5069977;28;20024;-81
2023/04/30 14:32:27;;;;;;;2.05;0.65;;;;;;;;;;5071234;28;20262;-81
2023/04/30 14:34:53;;;;;;;3.22;1.20;;;;;;;;;;5093977;28;20039;-81
2023/04/30 14:37:19;;;;;;;2.15;1.95;;;;;;;;;;5070475;28;20039;-81
2023/04/30 14:42:36;;;;;;;4.68;2.20;;;;;;;;;;5090099;28;20090;-78
2023/04/30 14:45:05;;;;;;;1.20;0.75;;;;;;;;;;5076301;28;20036;-81
2023/04/30 14:47:33;;;;;;;1.35;1.25;;;;;;;;;;5069874;28;20124;-81
2023/04/30 14:50:01;;;;;;;1.05;0.45;;;;;;;;;;5075351;28;20070;-82
2023/04/30 14:52:27;;;;;;;0.52;0.50;;;;;;;;;;5075568;28;20107;-82
2023/04/30 14:54:53;;;;;;;1.75;0.32;;;;;;;;;;5076098;28;20058;-82
2023/04/30 14:57:19;;;;;;;1.30;0.40;;;;;;;;;;5076373;28;20043;-81
2023/04/30 14:59:45;;;;;;;1.15;0.52;;;;;;;;;;5071568;28;20060;-82
2023/04/30 15:02:11;;;;;;;0.90;0.60;;;;;;;;;;5066740;28;20410;-82
2023/04/30 15:04:37;;;;;;;0.65;0.32;;;;;;;;;;5073923;28;20522;-80
2023/04/30 15:07:03;;;;;;;0.30;0.20;;;;;;;;;;5075587;28;20021;-81
2023/04/30 15:09:29;;;;;;;0.35;0.30;;;;;;;;;;5088415;28;20469;-80
2023/04/30 15:11:56;;;;;;;1.73;0.50;;;;;;;;;;5086960;28;20484;-80
2023/04/30 15:14:22;;;;;;;0.93;0.50;;;;;;;;;;5076574;28;20020;-80
2023/04/30 15:16:48;;;;;;;1.88;0.57;;;;;;;;;;5072997;28;20460;-79
2023/04/30 15:19:14;;;;;;;0.70;0.40;;;;;;;;;;5077231;28;20032;-78
2023/04/30 15:21:40;;;;;;;0.50;0.30;;;;;;;;;;5077023;28;20032;-78
2023/04/30 15:24:08;;;;;;;0.57;0.38;;;;;;;;;;5073969;28;20020;-78
2023/04/30 15:26:34;;;;;;;0.70;0.40;;;;;;;;;;5080399;28;20032;-79
2023/04/30 15:29:00;;;;;;;0.55;0.50;;;;;;;;;;5082481;28;20097;-80
2023/04/30 15:31:26;;;;;;;0.80;0.50;;;;;;;;;;5093170;28;20035;-79
2023/04/30 15:33:52;;;;;;;1.13;0.47;;;;;;;;;;5076935;28;20062;-79